Cehov, Russia
Current Conditions -  °F | °C
As of 4:00 PM on Thursday 20 Nov 2014 (Local Time) from UUMO Reporting Station
Haze Haze  
Wind Chill: 18°   Ceiling: 300
Heat Index: 18°   Visibility: 1.2mi
Dew Point: 16°   Wind: 2mph
Humidity: 93%   Direction: 160°SSE
Pressure: 30.62"   Gusts: NA
Location:  55.15°N, 37.48°E
Report Text: UUMO 201300Z 16001MPS 2000 BR BKN003 M08/M09 Q1037 NOSIG RMKQFE762/1016 QBB100 26090060
Loading
Personal Weather Stations






























Interactive Weather Map New forecast layout! Learn more

10-Day Weather Forecast

Advertisements
Track Severe Weather on mobile